sensor_id;sensor_type;location;lat;lon;timestamp;temperature;humidity
27200;DHT22;14714;48.106;11.546;2023-04-24T00:01:02;10.60;99.90
27200;DHT22;14714;48.106;11.546;2023-04-24T00:03:28;10.60;99.90
27200;DHT22;14714;48.106;11.546;2023-04-24T00:05:56;10.50;99.90
27200;DHT22;14714;48.106;11.546;2023-04-24T00:08:23;10.50;99.90
27200;DHT22;14714;48.106;11.546;2023-04-24T00:10:50;10.50;99.90
27200;DHT22;14714;48.106;11.546;2023-04-24T00:13:19;10.50;99.90
27200;DHT22;14714;48.106;11.546;2023-04-24T00:15:46;10.50;99.90
27200;DHT22;14714;48.106;11.546;2023-04-24T00:18:13;10.50;99.90
27200;DHT22;14714;48.106;11.546;2023-04-24T00:20:39;10.40;99.90
27200;DHT22;14714;48.106;11.546;2023-04-24T00:23:06;10.40;99.90
27200;DHT22;14714;48.106;11.546;2023-04-24T00:25:33;10.40;99.90
27200;DHT22;14714;48.106;11.546;2023-04-24T00:28:00;10.40;99.90
27200;DHT22;14714;48.106;11.546;2023-04-24T00:30:27;10.40;99.90
27200;DHT22;14714;48.106;11.546;2023-04-24T00:32:53;10.40;99.90
27200;DHT22;14714;48.106;11.546;2023-04-24T00:35:20;10.40;99.90
27200;DHT22;14714;48.106;11.546;2023-04-24T00:37:47;10.40;99.90
27200;DHT22;14714;48.106;11.546;2023-04-24T00:40:14;10.30;99.90
27200;DHT22;14714;48.106;11.546;2023-04-24T00:42:40;10.30;99.90
27200;DHT22;14714;48.106;11.546;2023-04-24T00:45:08;10.30;99.90
27200;DHT22;14714;48.106;11.546;2023-04-24T00:47:35;10.30;99.90
27200;DHT22;14714;48.106;11.546;2023-04-24T00:50:03;10.30;99.90
27200;DHT22;14714;48.106;11.546;2023-04-24T00:52:30;10.30;99.90
27200;DHT22;14714;48.106;11.546;2023-04-24T00:54:58;10.20;99.90
27200;DHT22;14714;48.106;11.546;2023-04-24T00:57:25;10.20;99.90
27200;DHT22;14714;48.106;11.546;2023-04-24T00:59:52;10.20;99.90
27200;DHT22;14714;48.106;11.546;2023-04-24T01:02:21;10.20;99.90
27200;DHT22;14714;48.106;11.546;2023-04-24T01:04:52;10.20;99.90
27200;DHT22;14714;48.106;11.546;2023-04-24T01:07:22;10.20;99.90
27200;DHT22;14714;48.106;11.546;2023-04-24T01:09:49;10.10;99.90
27200;DHT22;14714;48.106;11.546;2023-04-24T01:12:18;10.10;99.90
27200;DHT22;14714;48.106;11.546;2023-04-24T01:14:45;10.10;99.90
27200;DHT22;14714;48.106;11.546;2023-04-24T01:17:12;10.10;99.90
27200;DHT22;14714;48.106;11.546;2023-04-24T01:19:39;10.10;99.90
27200;DHT22;14714;48.106;11.546;2023-04-24T01:22:11;10.10;99.90
27200;DHT22;14714;48.106;11.546;2023-04-24T01:24:39;10.10;99.90
27200;DHT22;14714;48.106;11.546;2023-04-24T01:27:06;10.00;99.90
27200;DHT22;14714;48.106;11.546;2023-04-24T01:29:34;10.00;99.90
27200;DHT22;14714;48.106;11.546;2023-04-24T01:32:03;10.00;99.90
27200;DHT22;14714;48.106;11.546;2023-04-24T01:34:31;10.00;99.90
27200;DHT22;14714;48.106;11.546;2023-04-24T01:36:58;10.00;99.90
27200;DHT22;14714;48.106;11.546;2023-04-24T01:39:25;10.00;99.90
27200;DHT22;14714;48.106;11.546;2023-04-24T01:41:55;10.00;99.90
27200;DHT22;14714;48.106;11.546;2023-04-24T01:44:23;10.00;99.90
27200;DHT22;14714;48.106;11.546;2023-04-24T01:46:49;10.00;99.90
27200;DHT22;14714;48.106;11.546;2023-04-24T01:49:17;9.90;99.90
27200;DHT22;14714;48.106;11.546;2023-04-24T01:51:44;9.90;99.90
27200;DHT22;14714;48.106;11.546;2023-04-24T01:54:11;9.90;99.90
27200;DHT22;14714;48.106;11.546;2023-04-24T01:56:42;9.90;99.90
27200;DHT22;14714;48.106;11.546;2023-04-24T01:59:10;9.90;99.90
27200;DHT22;14714;48.106;11.546;2023-04-24T02:01:38;9.90;99.90
27200;DHT22;14714;48.106;11.546;2023-04-24T02:04:05;9.90;99.90
27200;DHT22;14714;48.106;11.546;2023-04-24T02:06:33;9.90;99.90
27200;DHT22;14714;48.106;11.546;2023-04-24T02:09:00;9.80;99.90
27200;DHT22;14714;48.106;11.546;2023-04-24T02:11:27;9.80;99.90
27200;DHT22;14714;48.106;11.546;2023-04-24T02:13:53;9.80;99.90
27200;DHT22;14714;48.106;11.546;2023-04-24T02:16:20;9.80;99.90
27200;DHT22;14714;48.106;11.546;2023-04-24T02:18:47;9.80;99.90
27200;DHT22;14714;48.106;11.546;2023-04-24T02:21:14;9.80;99.90
27200;DHT22;14714;48.106;11.546;2023-04-24T02:23:41;9.80;99.90
27200;DHT22;14714;48.106;11.546;2023-04-24T02:26:08;9.80;99.90
27200;DHT22;14714;48.106;11.546;2023-04-24T02:28:34;9.80;99.90
27200;DHT22;14714;48.106;11.546;2023-04-24T02:31:01;9.80;99.90
27200;DHT22;14714;48.106;11.546;2023-04-24T02:33:29;9.80;99.90
27200;DHT22;14714;48.106;11.546;2023-04-24T02:35:55;9.80;99.90
27200;DHT22;14714;48.106;11.546;2023-04-24T02:38:22;9.80;99.90
27200;DHT22;14714;48.106;11.546;2023-04-24T02:40:49;9.80;99.90
27200;DHT22;14714;48.106;11.546;2023-04-24T02:43:16;9.80;99.90
27200;DHT22;14714;48.106;11.546;2023-04-24T02:45:42;9.80;99.90
27200;DHT22;14714;48.106;11.546;2023-04-24T02:48:09;9.80;99.90
27200;DHT22;14714;48.106;11.546;2023-04-24T02:50:36;9.80;99.90
27200;DHT22;14714;48.106;11.546;2023-04-24T02:53:03;9.80;99.90
27200;DHT22;14714;48.106;11.546;2023-04-24T02:55:29;9.80;99.90
27200;DHT22;14714;48.106;11.546;2023-04-24T02:57:56;9.90;99.90
27200;DHT22;14714;48.106;11.546;2023-04-24T03:00:23;9.80;99.90
27200;DHT22;14714;48.106;11.546;2023-04-24T03:02:50;9.80;99.90
27200;DHT22;14714;48.106;11.546;2023-04-24T03:05:17;9.80;99.90
27200;DHT22;14714;48.106;11.546;2023-04-24T03:07:44;9.80;99.90
27200;DHT22;14714;48.106;11.546;2023-04-24T03:10:12;9.80;99.90
27200;DHT22;14714;48.106;11.546;2023-04-24T03:12:38;9.80;99.90
27200;DHT22;14714;48.106;11.546;2023-04-24T03:15:06;9.80;99.90
27200;DHT22;14714;48.106;11.546;2023-04-24T03:17:33;9.80;99.90
27200;DHT22;14714;48.106;11.546;2023-04-24T03:20:00;9.70;99.90
27200;DHT22;14714;48.106;11.546;2023-04-24T03:22:26;9.70;99.90
27200;DHT22;14714;48.106;11.546;2023-04-24T03:24:53;9.70;99.90
27200;DHT22;14714;48.106;11.546;2023-04-24T03:27:21;9.60;99.90
27200;DHT22;14714;48.106;11.546;2023-04-24T03:29:48;9.60;99.90
27200;DHT22;14714;48.106;11.546;2023-04-24T03:32:14;9.60;99.90
27200;DHT22;14714;48.106;11.546;2023-04-24T03:34:41;9.60;99.90
27200;DHT22;14714;48.106;11.546;2023-04-24T03:37:08;9.60;99.90
27200;DHT22;14714;48.106;11.546;2023-04-24T03:39:35;9.60;99.90
27200;DHT22;14714;48.106;11.546;2023-04-24T03:42:01;9.50;99.90
27200;DHT22;14714;48.106;11.546;2023-04-24T03:44:28;9.60;99.90
27200;DHT22;14714;48.106;11.546;2023-04-24T03:46:55;9.60;99.90
27200;DHT22;14714;48.106;11.546;2023-04-24T03:49:22;9.50;99.90
27200;DHT22;14714;48.106;11.546;2023-04-24T03:51:49;9.50;99.90
27200;DHT22;14714;48.106;11.546;2023-04-24T03:54:15;9.50;99.90
27200;DHT22;14714;48.106;11.546;2023-04-24T03:56:42;9.50;99.90
27200;DHT22;14714;48.106;11.546;2023-04-24T03:59:09;9.50;99.90
27200;DHT22;14714;48.106;11.546;2023-04-24T04:01:36;9.50;99.90
27200;DHT22;14714;48.106;11.546;2023-04-24T04:04:04;9.50;99.90
27200;DHT22;14714;48.106;11.546;2023-04-24T04:06:31;9.40;99.90
27200;DHT22;14714;48.106;11.546;2023-04-24T04:08:58;9.50;99.90
27200;DHT22;14714;48.106;11.546;2023-04-24T04:11:25;9.40;99.90
27200;DHT22;14714;48.106;11.546;2023-04-24T04:13:52;9.40;99.90
27200;DHT22;14714;48.106;11.546;2023-04-24T04:16:19;9.40;99.90
27200;DHT22;14714;48.106;11.546;2023-04-24T04:18:46;9.50;99.90
27200;DHT22;14714;48.106;11.546;2023-04-24T04:21:13;9.40;99.90
27200;DHT22;14714;48.106;11.546;2023-04-24T04:23:40;9.40;99.90
27200;DHT22;14714;48.106;11.546;2023-04-24T04:26:06;9.50;99.90
27200;DHT22;14714;48.106;11.546;2023-04-24T04:28:34;9.40;99.90
27200;DHT22;14714;48.106;11.546;2023-04-24T04:31:01;9.50;99.90
27200;DHT22;14714;48.106;11.546;2023-04-24T04:33:28;9.40;99.90
27200;DHT22;14714;48.106;11.546;2023-04-24T04:35:55;9.50;99.90
27200;DHT22;14714;48.106;11.546;2023-04-24T04:38:25;9.50;99.90
27200;DHT22;14714;48.106;11.546;2023-04-24T04:40:56;9.50;99.90
27200;DHT22;14714;48.106;11.546;2023-04-24T04:43:24;9.50;99.90
27200;DHT22;14714;48.106;11.546;2023-04-24T04:45:51;9.50;99.90
27200;DHT22;14714;48.106;11.546;2023-04-24T04:48:18;9.50;99.90
27200;DHT22;14714;48.106;11.546;2023-04-24T04:50:45;9.50;99.90
27200;DHT22;14714;48.106;11.546;2023-04-24T04:53:12;9.50;99.90
27200;DHT22;14714;48.106;11.546;2023-04-24T04:55:39;9.50;99.90
27200;DHT22;14714;48.106;11.546;2023-04-24T04:58:06;9.50;99.90
27200;DHT22;14714;48.106;11.546;2023-04-24T05:00:32;9.50;99.90
27200;DHT22;14714;48.106;11.546;2023-04-24T05:03:02;9.50;99.90
27200;DHT22;14714;48.106;11.546;2023-04-24T05:05:45;9.50;99.90
27200;DHT22;14714;48.106;11.546;2023-04-24T05:08:12;9.50;99.90
27200;DHT22;14714;48.106;11.546;2023-04-24T05:10:51;9.50;99.90
27200;DHT22;14714;48.106;11.546;2023-04-24T05:13:18;9.60;99.90
27200;DHT22;14714;48.106;11.546;2023-04-24T05:16:01;9.60;99.90
27200;DHT22;14714;48.106;11.546;2023-04-24T05:18:28;9.60;99.90
27200;DHT22;14714;48.106;11.546;2023-04-24T05:20:55;9.70;99.90
27200;DHT22;14714;48.106;11.546;2023-04-24T05:23:22;9.70;99.90
27200;DHT22;14714;48.106;11.546;2023-04-24T05:25:49;9.70;99.90
27200;DHT22;14714;48.106;11.546;2023-04-24T05:28:15;9.70;99.90
27200;DHT22;14714;48.106;11.546;2023-04-24T05:30:42;9.80;99.90
27200;DHT22;14714;48.106;11.546;2023-04-24T05:33:09;9.80;99.90
27200;DHT22;14714;48.106;11.546;2023-04-24T05:35:36;9.80;99.90
27200;DHT22;14714;48.106;11.546;2023-04-24T05:38:03;9.80;99.90
27200;DHT22;14714;48.106;11.546;2023-04-24T05:40:30;9.90;99.90
27200;DHT22;14714;48.106;11.546;2023-04-24T05:42:56;10.00;99.90
27200;DHT22;14714;48.106;11.546;2023-04-24T05:45:23;10.00;99.90
27200;DHT22;14714;48.106;11.546;2023-04-24T05:47:50;10.00;99.90
27200;DHT22;14714;48.106;11.546;2023-04-24T05:50:18;10.00;99.90
27200;DHT22;14714;48.106;11.546;2023-04-24T05:52:45;10.00;99.90
27200;DHT22;14714;48.106;11.546;2023-04-24T05:55:12;10.10;99.90
27200;DHT22;14714;48.106;11.546;2023-04-24T05:57:40;10.10;99.90
27200;DHT22;14714;48.106;11.546;2023-04-24T06:00:07;10.20;99.90
27200;DHT22;14714;48.106;11.546;2023-04-24T06:02:34;10.20;99.90
27200;DHT22;14714;48.106;11.546;2023-04-24T06:05:01;10.30;99.90
27200;DHT22;14714;48.106;11.546;2023-04-24T06:07:28;10.30;99.90
27200;DHT22;14714;48.106;11.546;2023-04-24T06:09:55;10.40;99.90
27200;DHT22;14714;48.106;11.546;2023-04-24T06:12:23;10.50;99.90
27200;DHT22;14714;48.106;11.546;2023-04-24T06:14:49;10.70;99.90
27200;DHT22;14714;48.106;11.546;2023-04-24T06:17:16;10.80;99.90
27200;DHT22;14714;48.106;11.546;2023-04-24T06:19:43;10.90;99.90
27200;DHT22;14714;48.106;11.546;2023-04-24T06:22:10;11.10;99.90
27200;DHT22;14714;48.106;11.546;2023-04-24T06:24:37;11.20;99.90
27200;DHT22;14714;48.106;11.546;2023-04-24T06:27:04;11.30;99.90
27200;DHT22;14714;48.106;11.546;2023-04-24T06:29:31;11.40;99.90
27200;DHT22;14714;48.106;11.546;2023-04-24T06:31:57;11.50;99.90
27200;DHT22;14714;48.106;11.546;2023-04-24T06:34:24;11.60;99.90
27200;DHT22;14714;48.106;11.546;2023-04-24T06:36:52;11.60;99.90
27200;DHT22;14714;48.106;11.546;2023-04-24T06:39:18;11.50;99.90
27200;DHT22;14714;48.106;11.546;2023-04-24T06:41:45;11.60;99.90
27200;DHT22;14714;48.106;11.546;2023-04-24T06:44:12;11.70;99.90
27200;DHT22;14714;48.106;11.546;2023-04-24T06:46:41;11.80;99.90
27200;DHT22;14714;48.106;11.546;2023-04-24T06:49:08;12.00;99.90
27200;DHT22;14714;48.106;11.546;2023-04-24T06:51:35;12.20;99.90
27200;DHT22;14714;48.106;11.546;2023-04-24T06:54:01;12.40;99.90
27200;DHT22;14714;48.106;11.546;2023-04-24T06:56:28;12.60;99.90
27200;DHT22;14714;48.106;11.546;2023-04-24T06:58:56;12.90;99.90
27200;DHT22;14714;48.106;11.546;2023-04-24T07:01:22;13.40;99.90
27200;DHT22;14714;48.106;11.546;2023-04-24T07:03:49;13.90;99.90
27200;DHT22;14714;48.106;11.546;2023-04-24T07:06:16;14.50;99.90
27200;DHT22;14714;48.106;11.546;2023-04-24T07:08:45;15.10;99.90
27200;DHT22;14714;48.106;11.546;2023-04-24T07:11:13;15.50;99.90
27200;DHT22;14714;48.106;11.546;2023-04-24T07:13:39;15.70;99.90
27200;DHT22;14714;48.106;11.546;2023-04-24T07:16:08;15.70;99.90
27200;DHT22;14714;48.106;11.546;2023-04-24T07:18:36;15.50;99.90
27200;DHT22;14714;48.106;11.546;2023-04-24T07:21:03;15.20;99.90
27200;DHT22;14714;48.106;11.546;2023-04-24T07:23:30;15.00;99.90
27200;DHT22;14714;48.106;11.546;2023-04-24T07:25:57;14.90;99.90
27200;DHT22;14714;48.106;11.546;2023-04-24T07:28:24;14.80;99.90
27200;DHT22;14714;48.106;11.546;2023-04-24T07:30:51;14.80;99.90
27200;DHT22;14714;48.106;11.546;2023-04-24T07:33:20;14.70;99.90
27200;DHT22;14714;48.106;11.546;2023-04-24T07:35:47;14.70;99.90
27200;DHT22;14714;48.106;11.546;2023-04-24T07:38:14;14.70;99.90
27200;DHT22;14714;48.106;11.546;2023-04-24T07:40:41;14.60;99.90
27200;DHT22;14714;48.106;11.546;2023-04-24T07:43:08;14.50;99.90
27200;DHT22;14714;48.106;11.546;2023-04-24T07:45:35;14.30;99.90
27200;DHT22;14714;48.106;11.546;2023-04-24T07:48:04;14.00;99.90
27200;DHT22;14714;48.106;11.546;2023-04-24T07:50:31;13.70;99.90
27200;DHT22;14714;48.106;11.546;2023-04-24T07:52:58;13.50;99.90
27200;DHT22;14714;48.106;11.546;2023-04-24T07:55:25;13.40;99.90
27200;DHT22;14714;48.106;11.546;2023-04-24T07:57:54;13.30;99.90
27200;DHT22;14714;48.106;11.546;2023-04-24T08:00:20;13.20;99.90
27200;DHT22;14714;48.106;11.546;2023-04-24T08:02:47;13.20;99.90
27200;DHT22;14714;48.106;11.546;2023-04-24T08:05:14;13.20;99.90
27200;DHT22;14714;48.106;11.546;2023-04-24T08:07:41;13.30;99.90
27200;DHT22;14714;48.106;11.546;2023-04-24T08:10:12;13.40;99.90
27200;DHT22;14714;48.106;11.546;2023-04-24T08:12:40;13.50;99.90
27200;DHT22;14714;48.106;11.546;2023-04-24T08:15:08;13.60;99.90
27200;DHT22;14714;48.106;11.546;2023-04-24T08:17:35;13.70;99.90
27200;DHT22;14714;48.106;11.546;2023-04-24T08:20:03;13.90;99.90
27200;DHT22;14714;48.106;11.546;2023-04-24T08:22:31;13.90;99.90
27200;DHT22;14714;48.106;11.546;2023-04-24T08:24:59;13.80;99.90
27200;DHT22;14714;48.106;11.546;2023-04-24T08:27:27;13.60;99.90
27200;DHT22;14714;48.106;11.546;2023-04-24T08:29:54;13.30;99.90
27200;DHT22;14714;48.106;11.546;2023-04-24T08:32:21;13.10;99.90
27200;DHT22;14714;48.106;11.546;2023-04-24T08:34:48;12.80;99.90
27200;DHT22;14714;48.106;11.546;2023-04-24T08:37:15;12.70;99.90
27200;DHT22;14714;48.106;11.546;2023-04-24T08:39:42;12.60;99.90
27200;DHT22;14714;48.106;11.546;2023-04-24T08:42:11;12.30;99.90
27200;DHT22;14714;48.106;11.546;2023-04-24T08:44:38;12.10;99.90
27200;DHT22;14714;48.106;11.546;2023-04-24T08:47:07;12.10;99.90
27200;DHT22;14714;48.106;11.546;2023-04-24T08:49:36;12.10;99.90
27200;DHT22;14714;48.106;11.546;2023-04-24T08:52:03;12.20;99.90
27200;DHT22;14714;48.106;11.546;2023-04-24T08:54:31;12.40;99.90
27200;DHT22;14714;48.106;11.546;2023-04-24T08:57:01;12.60;99.90
27200;DHT22;14714;48.106;11.546;2023-04-24T08:59:30;12.60;99.90
27200;DHT22;14714;48.106;11.546;2023-04-24T09:01:58;12.50;99.90
27200;DHT22;14714;48.106;11.546;2023-04-24T09:04:25;12.40;99.90
27200;DHT22;14714;48.106;11.546;2023-04-24T09:06:57;12.20;99.90
27200;DHT22;14714;48.106;11.546;2023-04-24T09:09:25;12.00;99.90
27200;DHT22;14714;48.106;11.546;2023-04-24T09:11:52;11.90;99.90
27200;DHT22;14714;48.106;11.546;2023-04-24T09:14:21;11.90;99.90
27200;DHT22;14714;48.106;11.546;2023-04-24T09:16:50;11.90;99.90
27200;DHT22;14714;48.106;11.546;2023-04-24T09:19:17;11.90;99.90
27200;DHT22;14714;48.106;11.546;2023-04-24T09:21:46;12.00;99.90
27200;DHT22;14714;48.106;11.546;2023-04-24T09:24:18;12.00;99.90
27200;DHT22;14714;48.106;11.546;2023-04-24T09:26:45;12.10;99.90
27200;DHT22;14714;48.106;11.546;2023-04-24T09:29:18;12.20;99.90
27200;DHT22;14714;48.106;11.546;2023-04-24T09:31:46;12.20;99.90
27200;DHT22;14714;48.106;11.546;2023-04-24T09:34:12;12.20;99.90
27200;DHT22;14714;48.106;11.546;2023-04-24T09:36:42;12.40;99.90
27200;DHT22;14714;48.106;11.546;2023-04-24T09:39:14;12.60;99.90
27200;DHT22;14714;48.106;11.546;2023-04-24T09:41:52;13.10;99.90
27200;DHT22;14714;48.106;11.546;2023-04-24T09:44:21;13.60;99.90
27200;DHT22;14714;48.106;11.546;2023-04-24T09:46:53;14.00;99.90
27200;DHT22;14714;48.106;11.546;2023-04-24T09:49:29;14.40;99.90
27200;DHT22;14714;48.106;11.546;2023-04-24T09:52:07;14.80;99.90
27200;DHT22;14714;48.106;11.546;2023-04-24T09:54:35;15.00;99.90
27200;DHT22;14714;48.106;11.546;2023-04-24T09:57:03;15.00;99.90
27200;DHT22;14714;48.106;11.546;2023-04-24T09:59:30;15.20;99.90
27200;DHT22;14714;48.106;11.546;2023-04-24T10:01:57;15.20;99.90
27200;DHT22;14714;48.106;11.546;2023-04-24T10:04:28;15.40;99.90
27200;DHT22;14714;48.106;11.546;2023-04-24T10:06:56;15.50;99.90
27200;DHT22;14714;48.106;11.546;2023-04-24T10:09:25;15.60;99.90
27200;DHT22;14714;48.106;11.546;2023-04-24T10:11:54;15.90;99.90
27200;DHT22;14714;48.106;11.546;2023-04-24T10:14:22;16.10;99.90
27200;DHT22;14714;48.106;11.546;2023-04-24T10:16:52;16.20;99.90
27200;DHT22;14714;48.106;11.546;2023-04-24T10:19:19;16.20;99.90
27200;DHT22;14714;48.106;11.546;2023-04-24T10:21:46;16.20;99.90
27200;DHT22;14714;48.106;11.546;2023-04-24T10:24:15;16.20;99.90
27200;DHT22;14714;48.106;11.546;2023-04-24T10:26:43;16.00;99.90
27200;DHT22;14714;48.106;11.546;2023-04-24T10:29:11;15.80;99.90
27200;DHT22;14714;48.106;11.546;2023-04-24T10:31:39;15.90;99.90
27200;DHT22;14714;48.106;11.546;2023-04-24T10:34:07;16.00;99.90
27200;DHT22;14714;48.106;11.546;2023-04-24T10:36:36;16.20;99.90
27200;DHT22;14714;48.106;11.546;2023-04-24T10:39:08;16.20;99.90
27200;DHT22;14714;48.106;11.546;2023-04-24T10:41:37;15.90;99.90
27200;DHT22;14714;48.106;11.546;2023-04-24T10:44:09;15.50;99.90
27200;DHT22;14714;48.106;11.546;2023-04-24T10:46:43;15.10;99.90
27200;DHT22;14714;48.106;11.546;2023-04-24T10:49:11;14.90;99.90
27200;DHT22;14714;48.106;11.546;2023-04-24T10:51:49;14.80;99.90
27200;DHT22;14714;48.106;11.546;2023-04-24T10:54:28;14.70;99.90
27200;DHT22;14714;48.106;11.546;2023-04-24T10:59:43;13.60;99.90
27200;DHT22;14714;48.106;11.546;2023-04-24T11:02:10;13.10;99.90
27200;DHT22;14714;48.106;11.546;2023-04-24T11:04:37;12.70;99.90
27200;DHT22;14714;48.106;11.546;2023-04-24T11:07:04;12.40;99.90
27200;DHT22;14714;48.106;11.546;2023-04-24T11:09:31;12.30;99.90
27200;DHT22;14714;48.106;11.546;2023-04-24T11:12:08;12.40;99.90
27200;DHT22;14714;48.106;11.546;2023-04-24T11:17:33;13.20;99.90
27200;DHT22;14714;48.106;11.546;2023-04-24T11:20:08;13.90;99.90
27200;DHT22;14714;48.106;11.546;2023-04-24T11:22:53;14.70;99.90
27200;DHT22;14714;48.106;11.546;2023-04-24T11:25:24;15.50;99.90
27200;DHT22;14714;48.106;11.546;2023-04-24T11:28:03;16.00;99.90
27200;DHT22;14714;48.106;11.546;2023-04-24T11:30:32;16.50;99.90
27200;DHT22;14714;48.106;11.546;2023-04-24T11:33:03;16.70;99.90
27200;DHT22;14714;48.106;11.546;2023-04-24T11:35:35;16.80;99.90
27200;DHT22;14714;48.106;11.546;2023-04-24T11:38:04;17.10;99.90
27200;DHT22;14714;48.106;11.546;2023-04-24T11:40:34;17.30;99.90
27200;DHT22;14714;48.106;11.546;2023-04-24T11:43:04;17.40;99.50
27200;DHT22;14714;48.106;11.546;2023-04-24T11:45:33;17.40;99.90
27200;DHT22;14714;48.106;11.546;2023-04-24T11:48:02;17.30;97.90
27200;DHT22;14714;48.106;11.546;2023-04-24T11:50:29;17.30;99.00
27200;DHT22;14714;48.106;11.546;2023-04-24T11:52:57;17.30;97.80
27200;DHT22;14714;48.106;11.546;2023-04-24T11:55:25;17.20;98.40
27200;DHT22;14714;48.106;11.546;2023-04-24T11:57:58;17.10;97.20
27200;DHT22;14714;48.106;11.546;2023-04-24T12:00:28;16.80;95.90
27200;DHT22;14714;48.106;11.546;2023-04-24T12:03:09;16.40;96.10
27200;DHT22;14714;48.106;11.546;2023-04-24T12:05:38;15.90;97.40
27200;DHT22;14714;48.106;11.546;2023-04-24T12:08:06;15.30;99.30
27200;DHT22;14714;48.106;11.546;2023-04-24T12:10:33;15.00;99.90
27200;DHT22;14714;48.106;11.546;2023-04-24T12:13:01;14.70;99.70
27200;DHT22;14714;48.106;11.546;2023-04-24T12:15:29;14.60;99.90
27200;DHT22;14714;48.106;11.546;2023-04-24T12:17:56;14.60;99.90
27200;DHT22;14714;48.106;11.546;2023-04-24T12:20:26;14.50;99.90
27200;DHT22;14714;48.106;11.546;2023-04-24T12:22:55;14.50;99.90
27200;DHT22;14714;48.106;11.546;2023-04-24T12:25:24;14.60;99.90
27200;DHT22;14714;48.106;11.546;2023-04-24T12:28:17;14.50;99.90
27200;DHT22;14714;48.106;11.546;2023-04-24T12:30:45;14.50;99.90
27200;DHT22;14714;48.106;11.546;2023-04-24T12:33:19;14.50;99.90
27200;DHT22;14714;48.106;11.546;2023-04-24T12:35:47;14.60;99.90
27200;DHT22;14714;48.106;11.546;2023-04-24T12:38:15;14.80;99.90
27200;DHT22;14714;48.106;11.546;2023-04-24T12:40:43;15.00;99.90
27200;DHT22;14714;48.106;11.546;2023-04-24T12:43:15;15.20;99.90
27200;DHT22;14714;48.106;11.546;2023-04-24T12:45:42;15.60;99.90
27200;DHT22;14714;48.106;11.546;2023-04-24T12:48:09;15.80;99.90
27200;DHT22;14714;48.106;11.546;2023-04-24T12:50:36;16.00;99.50
27200;DHT22;14714;48.106;11.546;2023-04-24T12:53:02;15.90;96.50
27200;DHT22;14714;48.106;11.546;2023-04-24T12:55:29;15.60;99.60
27200;DHT22;14714;48.106;11.546;2023-04-24T12:57:56;15.50;99.90
27200;DHT22;14714;48.106;11.546;2023-04-24T13:00:23;15.40;99.90
27200;DHT22;14714;48.106;11.546;2023-04-24T13:02:50;15.50;99.90
27200;DHT22;14714;48.106;11.546;2023-04-24T13:05:17;15.50;99.90
27200;DHT22;14714;48.106;11.546;2023-04-24T13:07:44;15.50;99.90
27200;DHT22;14714;48.106;11.546;2023-04-24T13:10:10;15.50;99.90
27200;DHT22;14714;48.106;11.546;2023-04-24T13:12:37;15.60;99.90
27200;DHT22;14714;48.106;11.546;2023-04-24T13:15:06;15.70;99.90
27200;DHT22;14714;48.106;11.546;2023-04-24T13:17:33;15.90;99.80
27200;DHT22;14714;48.106;11.546;2023-04-24T13:19:59;16.00;99.90
27200;DHT22;14714;48.106;11.546;2023-04-24T13:22:26;15.90;97.80
27200;DHT22;14714;48.106;11.546;2023-04-24T13:24:53;15.80;98.20
27200;DHT22;14714;48.106;11.546;2023-04-24T13:27:21;15.40;98.20
27200;DHT22;14714;48.106;11.546;2023-04-24T13:29:47;15.00;99.60
27200;DHT22;14714;48.106;11.546;2023-04-24T13:32:14;14.80;99.90
27200;DHT22;14714;48.106;11.546;2023-04-24T13:34:41;14.70;99.90
27200;DHT22;14714;48.106;11.546;2023-04-24T13:37:08;14.60;99.90
27200;DHT22;14714;48.106;11.546;2023-04-24T13:39:35;14.70;97.90
27200;DHT22;14714;48.106;11.546;2023-04-24T13:42:02;14.80;97.90
27200;DHT22;14714;48.106;11.546;2023-04-24T13:44:30;14.90;95.90
27200;DHT22;14714;48.106;11.546;2023-04-24T13:46:58;14.80;95.40
27200;DHT22;14714;48.106;11.546;2023-04-24T13:49:25;14.80;95.30
27200;DHT22;14714;48.106;11.546;2023-04-24T13:51:54;14.80;96.60
27200;DHT22;14714;48.106;11.546;2023-04-24T13:54:21;14.90;96.50
27200;DHT22;14714;48.106;11.546;2023-04-24T13:56:50;14.90;96.50
27200;DHT22;14714;48.106;11.546;2023-04-24T13:59:17;14.90;96.20
27200;DHT22;14714;48.106;11.546;2023-04-24T14:01:44;14.90;96.50
27200;DHT22;14714;48.106;11.546;2023-04-24T14:04:11;14.80;95.50
27200;DHT22;14714;48.106;11.546;2023-04-24T14:06:39;14.60;96.80
27200;DHT22;14714;48.106;11.546;2023-04-24T14:09:06;14.50;95.90
27200;DHT22;14714;48.106;11.546;2023-04-24T14:11:34;14.50;96.90
27200;DHT22;14714;48.106;11.546;2023-04-24T14:14:01;14.70;97.30
27200;DHT22;14714;48.106;11.546;2023-04-24T14:16:28;15.00;95.80
27200;DHT22;14714;48.106;11.546;2023-04-24T14:18:55;15.10;94.70
27200;DHT22;14714;48.106;11.546;2023-04-24T14:21:22;15.20;93.30
27200;DHT22;14714;48.106;11.546;2023-04-24T14:23:49;15.30;93.00
27200;DHT22;14714;48.106;11.546;2023-04-24T14:26:16;15.30;92.10
27200;DHT22;14714;48.106;11.546;2023-04-24T14:28:43;15.40;91.80
27200;DHT22;14714;48.106;11.546;2023-04-24T14:31:11;15.50;91.00
27200;DHT22;14714;48.106;11.546;2023-04-24T14:33:38;15.70;90.00
27200;DHT22;14714;48.106;11.546;2023-04-24T14:36:05;15.70;88.00
27200;DHT22;14714;48.106;11.546;2023-04-24T14:38:32;15.70;88.10
27200;DHT22;14714;48.106;11.546;2023-04-24T14:40:59;15.60;90.20
27200;DHT22;14714;48.106;11.546;2023-04-24T14:43:29;15.60;88.60
27200;DHT22;14714;48.106;11.546;2023-04-24T14:45:56;15.80;89.30
27200;DHT22;14714;48.106;11.546;2023-04-24T14:48:23;15.90;87.50
27200;DHT22;14714;48.106;11.546;2023-04-24T14:50:50;15.90;84.60
27200;DHT22;14714;48.106;11.546;2023-04-24T14:53:17;15.70;84.20
27200;DHT22;14714;48.106;11.546;2023-04-24T14:55:44;15.60;85.30
27200;DHT22;14714;48.106;11.546;2023-04-24T14:58:11;15.50;84.90
27200;DHT22;14714;48.106;11.546;2023-04-24T15:00:38;15.40;83.30
27200;DHT22;14714;48.106;11.546;2023-04-24T15:03:04;15.40;83.00
27200;DHT22;14714;48.106;11.546;2023-04-24T15:05:32;15.40;84.00
27200;DHT22;14714;48.106;11.546;2023-04-24T15:07:59;15.30;79.80
27200;DHT22;14714;48.106;11.546;2023-04-24T15:10:26;15.20;81.10
27200;DHT22;14714;48.106;11.546;2023-04-24T15:12:52;15.10;84.40
27200;DHT22;14714;48.106;11.546;2023-04-24T15:15:19;15.10;82.40
27200;DHT22;14714;48.106;11.546;2023-04-24T15:17:46;15.00;81.30
27200;DHT22;14714;48.106;11.546;2023-04-24T15:20:13;15.00;82.90
27200;DHT22;14714;48.106;11.546;2023-04-24T15:22:39;15.00;80.00
27200;DHT22;14714;48.106;11.546;2023-04-24T15:25:07;14.90;82.00
27200;DHT22;14714;48.106;11.546;2023-04-24T15:27:41;15.00;81.50
27200;DHT22;14714;48.106;11.546;2023-04-24T15:30:09;15.20;82.90